sensor_id;sensor_type;location;lat;lon;timestamp;temperature;humidity
37158;DHT22;23050;51.776;22.638;2022-08-18T00:01:08;17.60;99.90
37158;DHT22;23050;51.776;22.638;2022-08-18T00:03:34;17.60;99.90
37158;DHT22;23050;51.776;22.638;2022-08-18T00:05:59;17.60;99.90
37158;DHT22;23050;51.776;22.638;2022-08-18T00:08:25;17.60;99.90
37158;DHT22;23050;51.776;22.638;2022-08-18T00:10:54;17.50;99.90
37158;DHT22;23050;51.776;22.638;2022-08-18T00:13:20;17.50;99.90
37158;DHT22;23050;51.776;22.638;2022-08-18T00:15:46;17.50;99.90
37158;DHT22;23050;51.776;22.638;2022-08-18T00:18:11;17.50;99.90
37158;DHT22;23050;51.776;22.638;2022-08-18T00:20:39;17.50;99.90
37158;DHT22;23050;51.776;22.638;2022-08-18T00:23:05;17.40;99.90
37158;DHT22;23050;51.776;22.638;2022-08-18T00:25:31;17.40;99.90
37158;DHT22;23050;51.776;22.638;2022-08-18T00:27:57;17.40;99.90
37158;DHT22;23050;51.776;22.638;2022-08-18T00:30:22;17.30;99.90
37158;DHT22;23050;51.776;22.638;2022-08-18T00:32:54;17.30;99.90
37158;DHT22;23050;51.776;22.638;2022-08-18T00:35:33;17.30;99.90
37158;DHT22;23050;51.776;22.638;2022-08-18T00:38:00;17.30;99.90
37158;DHT22;23050;51.776;22.638;2022-08-18T00:40:37;17.30;99.90
37158;DHT22;23050;51.776;22.638;2022-08-18T00:43:04;17.30;99.90
37158;DHT22;23050;51.776;22.638;2022-08-18T00:45:36;17.30;99.90
37158;DHT22;23050;51.776;22.638;2022-08-18T00:48:03;17.30;99.90
37158;DHT22;23050;51.776;22.638;2022-08-18T00:53:04;17.30;99.90
37158;DHT22;23050;51.776;22.638;2022-08-18T00:55:32;17.20;99.90
37158;DHT22;23050;51.776;22.638;2022-08-18T00:58:11;17.20;99.90
37158;DHT22;23050;51.776;22.638;2022-08-18T01:00:41;17.20;99.90
37158;DHT22;23050;51.776;22.638;2022-08-18T01:03:12;17.20;99.90
37158;DHT22;23050;51.776;22.638;2022-08-18T01:05:46;17.20;99.90
37158;DHT22;23050;51.776;22.638;2022-08-18T01:08:14;17.30;99.90
37158;DHT22;23050;51.776;22.638;2022-08-18T01:10:42;17.30;99.90
37158;DHT22;23050;51.776;22.638;2022-08-18T01:13:08;17.20;99.90
37158;DHT22;23050;51.776;22.638;2022-08-18T01:15:35;17.20;99.90
37158;DHT22;23050;51.776;22.638;2022-08-18T01:18:06;17.20;99.90
37158;DHT22;23050;51.776;22.638;2022-08-18T01:21:28;17.20;99.90
37158;DHT22;23050;51.776;22.638;2022-08-18T01:24:13;17.20;99.90
37158;DHT22;23050;51.776;22.638;2022-08-18T01:26:40;17.20;99.90
37158;DHT22;23050;51.776;22.638;2022-08-18T01:29:16;17.10;99.90
37158;DHT22;23050;51.776;22.638;2022-08-18T01:31:49;17.10;99.90
37158;DHT22;23050;51.776;22.638;2022-08-18T01:34:19;17.10;99.90
37158;DHT22;23050;51.776;22.638;2022-08-18T01:36:47;17.10;99.90
37158;DHT22;23050;51.776;22.638;2022-08-18T01:39:13;17.10;99.90
37158;DHT22;23050;51.776;22.638;2022-08-18T01:41:39;17.10;99.90
37158;DHT22;23050;51.776;22.638;2022-08-18T01:44:05;17.00;99.90
37158;DHT22;23050;51.776;22.638;2022-08-18T01:46:34;17.00;99.90
37158;DHT22;23050;51.776;22.638;2022-08-18T01:49:00;17.00;99.90
37158;DHT22;23050;51.776;22.638;2022-08-18T01:51:30;17.00;99.90
37158;DHT22;23050;51.776;22.638;2022-08-18T01:53:57;17.00;99.90
37158;DHT22;23050;51.776;22.638;2022-08-18T01:56:25;17.00;99.90
37158;DHT22;23050;51.776;22.638;2022-08-18T01:58:54;16.90;99.90
37158;DHT22;23050;51.776;22.638;2022-08-18T02:01:21;16.80;99.90
37158;DHT22;23050;51.776;22.638;2022-08-18T02:03:50;16.80;99.90
37158;DHT22;23050;51.776;22.638;2022-08-18T02:06:17;16.80;99.90
37158;DHT22;23050;51.776;22.638;2022-08-18T02:08:44;16.70;99.90
37158;DHT22;23050;51.776;22.638;2022-08-18T02:11:11;16.70;99.90
37158;DHT22;23050;51.776;22.638;2022-08-18T02:13:37;16.70;99.90
37158;DHT22;23050;51.776;22.638;2022-08-18T02:16:03;16.60;99.90
37158;DHT22;23050;51.776;22.638;2022-08-18T02:18:34;16.60;99.90
37158;DHT22;23050;51.776;22.638;2022-08-18T02:21:10;16.60;99.90
37158;DHT22;23050;51.776;22.638;2022-08-18T02:23:36;16.60;99.90
37158;DHT22;23050;51.776;22.638;2022-08-18T02:26:07;16.60;99.90
37158;DHT22;23050;51.776;22.638;2022-08-18T02:28:33;16.60;99.90
37158;DHT22;23050;51.776;22.638;2022-08-18T02:31:08;16.60;99.90
37158;DHT22;23050;51.776;22.638;2022-08-18T02:33:34;16.60;99.90
37158;DHT22;23050;51.776;22.638;2022-08-18T02:36:00;16.60;99.90
37158;DHT22;23050;51.776;22.638;2022-08-18T02:38:27;16.60;99.90
37158;DHT22;23050;51.776;22.638;2022-08-18T02:40:57;16.60;99.90
37158;DHT22;23050;51.776;22.638;2022-08-18T02:43:23;16.60;99.90
37158;DHT22;23050;51.776;22.638;2022-08-18T02:45:49;16.60;99.90
37158;DHT22;23050;51.776;22.638;2022-08-18T02:48:15;16.50;99.90
37158;DHT22;23050;51.776;22.638;2022-08-18T02:50:41;16.50;99.90
37158;DHT22;23050;51.776;22.638;2022-08-18T02:53:13;16.50;99.90
37158;DHT22;23050;51.776;22.638;2022-08-18T02:55:49;16.50;99.90
37158;DHT22;23050;51.776;22.638;2022-08-18T02:58:15;16.50;99.90
37158;DHT22;23050;51.776;22.638;2022-08-18T03:00:41;16.40;99.90
37158;DHT22;23050;51.776;22.638;2022-08-18T03:03:07;16.40;99.90
37158;DHT22;23050;51.776;22.638;2022-08-18T03:05:33;16.40;99.90
37158;DHT22;23050;51.776;22.638;2022-08-18T03:07:58;16.40;99.90
37158;DHT22;23050;51.776;22.638;2022-08-18T03:10:24;16.40;99.90
37158;DHT22;23050;51.776;22.638;2022-08-18T03:12:50;16.40;99.90
37158;DHT22;23050;51.776;22.638;2022-08-18T03:15:15;16.30;99.90
37158;DHT22;23050;51.776;22.638;2022-08-18T03:17:41;16.40;99.90
37158;DHT22;23050;51.776;22.638;2022-08-18T03:20:07;16.40;99.90
37158;DHT22;23050;51.776;22.638;2022-08-18T03:22:33;16.40;99.90
37158;DHT22;23050;51.776;22.638;2022-08-18T03:24:58;16.40;99.90
37158;DHT22;23050;51.776;22.638;2022-08-18T03:27:25;16.40;99.90
37158;DHT22;23050;51.776;22.638;2022-08-18T03:29:51;16.40;99.90
37158;DHT22;23050;51.776;22.638;2022-08-18T03:32:16;16.40;99.90
37158;DHT22;23050;51.776;22.638;2022-08-18T03:34:43;16.50;99.90
37158;DHT22;23050;51.776;22.638;2022-08-18T03:37:09;16.40;99.90
37158;DHT22;23050;51.776;22.638;2022-08-18T03:39:34;16.40;99.90
37158;DHT22;23050;51.776;22.638;2022-08-18T03:42:00;16.40;99.90
37158;DHT22;23050;51.776;22.638;2022-08-18T03:44:31;16.40;99.90
37158;DHT22;23050;51.776;22.638;2022-08-18T03:46:57;16.40;99.90
37158;DHT22;23050;51.776;22.638;2022-08-18T03:49:23;16.40;99.90
37158;DHT22;23050;51.776;22.638;2022-08-18T03:51:51;16.40;99.90
37158;DHT22;23050;51.776;22.638;2022-08-18T03:54:17;16.50;99.90
37158;DHT22;23050;51.776;22.638;2022-08-18T03:56:44;16.50;99.90
37158;DHT22;23050;51.776;22.638;2022-08-18T03:59:23;16.50;99.90
37158;DHT22;23050;51.776;22.638;2022-08-18T04:01:51;16.50;99.90
37158;DHT22;23050;51.776;22.638;2022-08-18T04:04:20;16.50;99.90
37158;DHT22;23050;51.776;22.638;2022-08-18T04:06:50;16.60;99.90
37158;DHT22;23050;51.776;22.638;2022-08-18T04:09:20;16.60;99.90
37158;DHT22;23050;51.776;22.638;2022-08-18T04:11:46;16.70;99.90
37158;DHT22;23050;51.776;22.638;2022-08-18T04:14:14;16.80;99.90
37158;DHT22;23050;51.776;22.638;2022-08-18T04:16:41;16.90;99.90
37158;DHT22;23050;51.776;22.638;2022-08-18T04:19:07;17.00;99.90
37158;DHT22;23050;51.776;22.638;2022-08-18T04:21:36;17.10;99.90
37158;DHT22;23050;51.776;22.638;2022-08-18T04:24:03;17.10;99.90
37158;DHT22;23050;51.776;22.638;2022-08-18T04:26:42;17.20;99.90
37158;DHT22;23050;51.776;22.638;2022-08-18T04:29:09;17.30;99.90
37158;DHT22;23050;51.776;22.638;2022-08-18T04:31:35;17.50;99.90
37158;DHT22;23050;51.776;22.638;2022-08-18T04:34:02;17.60;99.90
37158;DHT22;23050;51.776;22.638;2022-08-18T04:36:29;17.70;99.90
37158;DHT22;23050;51.776;22.638;2022-08-18T04:38:56;17.90;99.90
37158;DHT22;23050;51.776;22.638;2022-08-18T04:41:22;18.00;99.90
37158;DHT22;23050;51.776;22.638;2022-08-18T04:44:02;18.30;99.90
37158;DHT22;23050;51.776;22.638;2022-08-18T04:46:29;18.90;99.90
37158;DHT22;23050;51.776;22.638;2022-08-18T04:48:57;19.80;99.90
37158;DHT22;23050;51.776;22.638;2022-08-18T04:51:24;20.70;99.90
37158;DHT22;23050;51.776;22.638;2022-08-18T04:53:50;21.60;99.90
37158;DHT22;23050;51.776;22.638;2022-08-18T04:56:29;22.50;99.90
37158;DHT22;23050;51.776;22.638;2022-08-18T04:58:57;23.20;99.90
37158;DHT22;23050;51.776;22.638;2022-08-18T05:01:25;23.90;99.90
37158;DHT22;23050;51.776;22.638;2022-08-18T05:03:52;24.30;99.90
37158;DHT22;23050;51.776;22.638;2022-08-18T05:06:21;24.80;99.90
37158;DHT22;23050;51.776;22.638;2022-08-18T05:08:55;25.10;99.90
37158;DHT22;23050;51.776;22.638;2022-08-18T05:11:21;25.40;99.90
37158;DHT22;23050;51.776;22.638;2022-08-18T05:13:49;25.90;99.90
37158;DHT22;23050;51.776;22.638;2022-08-18T05:16:17;26.40;99.90
37158;DHT22;23050;51.776;22.638;2022-08-18T05:18:43;26.50;99.90
37158;DHT22;23050;51.776;22.638;2022-08-18T05:21:10;26.50;99.90
37158;DHT22;23050;51.776;22.638;2022-08-18T05:23:43;27.10;99.90
37158;DHT22;23050;51.776;22.638;2022-08-18T05:26:10;27.10;99.90
37158;DHT22;23050;51.776;22.638;2022-08-18T05:28:36;27.50;99.10
37158;DHT22;23050;51.776;22.638;2022-08-18T05:31:08;27.90;93.70
37158;DHT22;23050;51.776;22.638;2022-08-18T05:33:35;28.00;93.80
37158;DHT22;23050;51.776;22.638;2022-08-18T05:36:08;28.70;85.50
37158;DHT22;23050;51.776;22.638;2022-08-18T05:41:24;28.40;87.70
37158;DHT22;23050;51.776;22.638;2022-08-18T05:43:51;28.50;86.80
37158;DHT22;23050;51.776;22.638;2022-08-18T05:46:17;28.90;77.90
37158;DHT22;23050;51.776;22.638;2022-08-18T05:48:44;29.80;64.90
37158;DHT22;23050;51.776;22.638;2022-08-18T05:51:31;30.40;48.10
37158;DHT22;23050;51.776;22.638;2022-08-18T05:53:58;29.60;47.00
37158;DHT22;23050;51.776;22.638;2022-08-18T05:56:45;29.40;55.10
37158;DHT22;23050;51.776;22.638;2022-08-18T05:59:25;30.10;47.00
37158;DHT22;23050;51.776;22.638;2022-08-18T06:02:07;30.40;42.60
37158;DHT22;23050;51.776;22.638;2022-08-18T06:04:52;31.00;36.70
37158;DHT22;23050;51.776;22.638;2022-08-18T06:07:33;31.40;29.00
37158;DHT22;23050;51.776;22.638;2022-08-18T06:10:00;31.80;25.10
37158;DHT22;23050;51.776;22.638;2022-08-18T06:15:03;32.40;19.60
37158;DHT22;23050;51.776;22.638;2022-08-18T06:18:00;32.00;18.30
37158;DHT22;23050;51.776;22.638;2022-08-18T06:21:44;31.90;18.40
37158;DHT22;23050;51.776;22.638;2022-08-18T06:24:00;31.60;21.10
37158;DHT22;23050;51.776;22.638;2022-08-18T06:40:30;33.70;11.30
37158;DHT22;23050;51.776;22.638;2022-08-18T06:42:55;34.50;6.80
37158;DHT22;23050;51.776;22.638;2022-08-18T06:45:29;34.70;4.20
37158;DHT22;23050;51.776;22.638;2022-08-18T06:50:52;34.80;1.90
37158;DHT22;23050;51.776;22.638;2022-08-18T06:53:19;34.20;1.90
37158;DHT22;23050;51.776;22.638;2022-08-18T06:55:47;34.50;2.70
37158;DHT22;23050;51.776;22.638;2022-08-18T07:01:04;34.30;3.60
37158;DHT22;23050;51.776;22.638;2022-08-18T07:08:45;35.70;1.00
37158;DHT22;23050;51.776;22.638;2022-08-18T07:13:46;35.40;1.00
37158;DHT22;23050;51.776;22.638;2022-08-18T07:16:31;36.00;1.00
37158;DHT22;23050;51.776;22.638;2022-08-18T07:19:11;36.20;1.00
37158;DHT22;23050;51.776;22.638;2022-08-18T07:21:39;36.60;1.00
37158;DHT22;23050;51.776;22.638;2022-08-18T07:24:48;36.10;1.00
37158;DHT22;23050;51.776;22.638;2022-08-18T07:27:00;36.50;1.00
37158;DHT22;23050;51.776;22.638;2022-08-18T07:29:31;36.40;1.00
37158;DHT22;23050;51.776;22.638;2022-08-18T07:32:04;37.10;1.00
37158;DHT22;23050;51.776;22.638;2022-08-18T07:34:50;37.50;1.00
37158;DHT22;23050;51.776;22.638;2022-08-18T07:37:25;37.30;1.00
37158;DHT22;23050;51.776;22.638;2022-08-18T07:39:54;37.20;1.00
37158;DHT22;23050;51.776;22.638;2022-08-18T07:45:03;37.40;1.00
37158;DHT22;23050;51.776;22.638;2022-08-18T07:47:48;37.10;1.00
37158;DHT22;23050;51.776;22.638;2022-08-18T07:50:14;37.50;1.00
37158;DHT22;23050;51.776;22.638;2022-08-18T07:52:50;38.20;1.00
37158;DHT22;23050;51.776;22.638;2022-08-18T08:05:41;37.60;1.00
37158;DHT22;23050;51.776;22.638;2022-08-18T08:08:24;37.60;1.00
37158;DHT22;23050;51.776;22.638;2022-08-18T08:11:07;38.00;1.00
37158;DHT22;23050;51.776;22.638;2022-08-18T08:22:04;38.50;1.00
37158;DHT22;23050;51.776;22.638;2022-08-18T08:30:15;38.30;1.00
37158;DHT22;23050;51.776;22.638;2022-08-18T08:33:19;38.50;1.00
37158;DHT22;23050;51.776;22.638;2022-08-18T08:35:51;38.80;1.00
37158;DHT22;23050;51.776;22.638;2022-08-18T08:38:33;38.20;1.00
37158;DHT22;23050;51.776;22.638;2022-08-18T08:41:08;38.40;1.00
37158;DHT22;23050;51.776;22.638;2022-08-18T08:43:48;38.60;1.00
37158;DHT22;23050;51.776;22.638;2022-08-18T08:46:22;38.80;1.00
37158;DHT22;23050;51.776;22.638;2022-08-18T08:48:58;39.20;1.00
37158;DHT22;23050;51.776;22.638;2022-08-18T08:51:32;38.90;1.00
37158;DHT22;23050;51.776;22.638;2022-08-18T08:56:35;38.80;1.00
37158;DHT22;23050;51.776;22.638;2022-08-18T08:59:09;38.60;1.00
37158;DHT22;23050;51.776;22.638;2022-08-18T09:07:26;39.30;1.00
37158;DHT22;23050;51.776;22.638;2022-08-18T09:10:06;39.70;1.00
37158;DHT22;23050;51.776;22.638;2022-08-18T09:13:09;39.40;1.00
37158;DHT22;23050;51.776;22.638;2022-08-18T09:21:23;40.20;1.00
37158;DHT22;23050;51.776;22.638;2022-08-18T09:27:31;39.70;1.00
37158;DHT22;23050;51.776;22.638;2022-08-18T09:29:48;39.00;1.00
37158;DHT22;23050;51.776;22.638;2022-08-18T09:37:53;39.20;1.00
37158;DHT22;23050;51.776;22.638;2022-08-18T09:40:48;38.50;1.00
37158;DHT22;23050;51.776;22.638;2022-08-18T09:51:51;38.20;1.00
37158;DHT22;23050;51.776;22.638;2022-08-18T09:54:19;37.30;1.00
37158;DHT22;23050;51.776;22.638;2022-08-18T10:02:07;36.70;1.00
37158;DHT22;23050;51.776;22.638;2022-08-18T10:04:40;36.70;1.00
37158;DHT22;23050;51.776;22.638;2022-08-18T10:07:29;36.50;1.00
37158;DHT22;23050;51.776;22.638;2022-08-18T10:10:30;36.90;1.00
37158;DHT22;23050;51.776;22.638;2022-08-18T10:21:16;38.00;1.00
37158;DHT22;23050;51.776;22.638;2022-08-18T10:23:45;38.10;1.00
37158;DHT22;23050;51.776;22.638;2022-08-18T10:39:54;37.70;1.00
37158;DHT22;23050;51.776;22.638;2022-08-18T10:42:24;37.80;1.00
37158;DHT22;23050;51.776;22.638;2022-08-18T10:44:59;37.70;1.00
37158;DHT22;23050;51.776;22.638;2022-08-18T10:47:28;38.00;1.00
37158;DHT22;23050;51.776;22.638;2022-08-18T10:49:57;37.30;1.00
37158;DHT22;23050;51.776;22.638;2022-08-18T10:55:34;37.00;1.00
37158;DHT22;23050;51.776;22.638;2022-08-18T10:58:23;36.80;1.00
37158;DHT22;23050;51.776;22.638;2022-08-18T11:01:06;36.70;1.00
37158;DHT22;23050;51.776;22.638;2022-08-18T11:06:15;36.70;1.00
37158;DHT22;23050;51.776;22.638;2022-08-18T11:08:49;36.50;1.00
37158;DHT22;23050;51.776;22.638;2022-08-18T11:11:20;36.30;1.00
37158;DHT22;23050;51.776;22.638;2022-08-18T11:14:02;35.90;1.00
37158;DHT22;23050;51.776;22.638;2022-08-18T11:19:24;35.90;1.00
37158;DHT22;23050;51.776;22.638;2022-08-18T11:21:51;36.30;1.00
37158;DHT22;23050;51.776;22.638;2022-08-18T11:24:20;36.00;1.00
37158;DHT22;23050;51.776;22.638;2022-08-18T11:26:53;35.60;1.00
37158;DHT22;23050;51.776;22.638;2022-08-18T11:29:34;35.70;1.00
37158;DHT22;23050;51.776;22.638;2022-08-18T11:32:30;35.70;1.00
37158;DHT22;23050;51.776;22.638;2022-08-18T11:40:33;34.60;1.00
37158;DHT22;23050;51.776;22.638;2022-08-18T11:45:54;34.30;1.00
37158;DHT22;23050;51.776;22.638;2022-08-18T11:48:32;34.60;1.00
37158;DHT22;23050;51.776;22.638;2022-08-18T11:51:00;34.60;1.00
37158;DHT22;23050;51.776;22.638;2022-08-18T11:58:49;35.60;1.00
37158;DHT22;23050;51.776;22.638;2022-08-18T12:04:30;35.60;1.00
37158;DHT22;23050;51.776;22.638;2022-08-18T12:07:27;35.30;1.00
37158;DHT22;23050;51.776;22.638;2022-08-18T12:10:24;34.50;1.00
37158;DHT22;23050;51.776;22.638;2022-08-18T12:12:53;34.70;1.00
37158;DHT22;23050;51.776;22.638;2022-08-18T12:17:45;34.30;1.00
37158;DHT22;23050;51.776;22.638;2022-08-18T12:20:12;34.30;1.00
37158;DHT22;23050;51.776;22.638;2022-08-18T12:22:40;34.40;1.00
37158;DHT22;23050;51.776;22.638;2022-08-18T12:25:12;34.00;1.00
37158;DHT22;23050;51.776;22.638;2022-08-18T12:27:39;33.70;1.00
37158;DHT22;23050;51.776;22.638;2022-08-18T12:30:07;33.70;1.00
37158;DHT22;23050;51.776;22.638;2022-08-18T12:32:34;33.90;1.00
37158;DHT22;23050;51.776;22.638;2022-08-18T12:35:01;34.00;1.00
37158;DHT22;23050;51.776;22.638;2022-08-18T12:37:28;34.00;1.00
37158;DHT22;23050;51.776;22.638;2022-08-18T12:39:55;34.60;1.00
37158;DHT22;23050;51.776;22.638;2022-08-18T12:42:22;35.10;1.00
37158;DHT22;23050;51.776;22.638;2022-08-18T12:44:47;35.10;1.00
37158;DHT22;23050;51.776;22.638;2022-08-18T12:47:18;35.10;1.00
37158;DHT22;23050;51.776;22.638;2022-08-18T12:49:45;35.30;1.00
37158;DHT22;23050;51.776;22.638;2022-08-18T12:52:11;34.60;1.00
37158;DHT22;23050;51.776;22.638;2022-08-18T12:54:37;34.40;1.00
37158;DHT22;23050;51.776;22.638;2022-08-18T12:57:06;34.00;1.00
37158;DHT22;23050;51.776;22.638;2022-08-18T12:59:33;34.50;1.00
37158;DHT22;23050;51.776;22.638;2022-08-18T13:02:00;34.30;1.00
37158;DHT22;23050;51.776;22.638;2022-08-18T13:04:26;33.90;1.00
37158;DHT22;23050;51.776;22.638;2022-08-18T13:06:54;32.90;1.00
37158;DHT22;23050;51.776;22.638;2022-08-18T13:09:21;32.30;1.00
37158;DHT22;23050;51.776;22.638;2022-08-18T13:11:47;31.90;1.00
37158;DHT22;23050;51.776;22.638;2022-08-18T13:14:12;31.90;1.00
37158;DHT22;23050;51.776;22.638;2022-08-18T13:16:41;32.00;1.00
37158;DHT22;23050;51.776;22.638;2022-08-18T13:19:08;32.10;1.00
37158;DHT22;23050;51.776;22.638;2022-08-18T13:21:34;32.80;1.00
37158;DHT22;23050;51.776;22.638;2022-08-18T13:24:00;33.60;1.00
37158;DHT22;23050;51.776;22.638;2022-08-18T13:26:29;34.40;1.00
37158;DHT22;23050;51.776;22.638;2022-08-18T13:28:55;35.10;1.00
37158;DHT22;23050;51.776;22.638;2022-08-18T13:31:22;35.70;1.00
37158;DHT22;23050;51.776;22.638;2022-08-18T13:33:47;36.20;1.00
37158;DHT22;23050;51.776;22.638;2022-08-18T13:36:14;36.90;1.00
37158;DHT22;23050;51.776;22.638;2022-08-18T13:38:40;37.30;1.00
37158;DHT22;23050;51.776;22.638;2022-08-18T13:41:07;36.70;1.00
37158;DHT22;23050;51.776;22.638;2022-08-18T13:43:38;36.00;1.00
37158;DHT22;23050;51.776;22.638;2022-08-18T13:46:10;36.20;1.00
37158;DHT22;23050;51.776;22.638;2022-08-18T13:48:37;36.50;1.00
37158;DHT22;23050;51.776;22.638;2022-08-18T13:51:05;36.80;1.00
37158;DHT22;23050;51.776;22.638;2022-08-18T13:53:32;36.70;1.00
37158;DHT22;23050;51.776;22.638;2022-08-18T13:56:00;36.80;1.00
37158;DHT22;23050;51.776;22.638;2022-08-18T13:58:27;36.80;1.00
37158;DHT22;23050;51.776;22.638;2022-08-18T14:01:01;36.80;1.00
37158;DHT22;23050;51.776;22.638;2022-08-18T14:03:28;37.10;1.00
37158;DHT22;23050;51.776;22.638;2022-08-18T14:05:54;37.40;1.00
37158;DHT22;23050;51.776;22.638;2022-08-18T14:08:22;36.90;1.00
37158;DHT22;23050;51.776;22.638;2022-08-18T14:10:52;36.80;1.00
37158;DHT22;23050;51.776;22.638;2022-08-18T14:13:17;36.50;1.00
37158;DHT22;23050;51.776;22.638;2022-08-18T14:15:44;36.40;1.00
37158;DHT22;23050;51.776;22.638;2022-08-18T14:18:10;36.80;1.00
37158;DHT22;23050;51.776;22.638;2022-08-18T14:20:36;36.80;1.00
37158;DHT22;23050;51.776;22.638;2022-08-18T14:23:20;37.00;1.00
37158;DHT22;23050;51.776;22.638;2022-08-18T14:26:05;36.00;1.00
37158;DHT22;23050;51.776;22.638;2022-08-18T14:28:49;35.00;1.00
37158;DHT22;23050;51.776;22.638;2022-08-18T14:31:15;35.40;1.00
37158;DHT22;23050;51.776;22.638;2022-08-18T14:33:43;35.70;1.00
37158;DHT22;23050;51.776;22.638;2022-08-18T14:36:09;36.00;1.00
37158;DHT22;23050;51.776;22.638;2022-08-18T14:38:36;35.60;1.00
37158;DHT22;23050;51.776;22.638;2022-08-18T14:41:04;34.40;1.00
37158;DHT22;23050;51.776;22.638;2022-08-18T14:43:30;33.90;1.00
37158;DHT22;23050;51.776;22.638;2022-08-18T14:45:56;33.90;1.00
37158;DHT22;23050;51.776;22.638;2022-08-18T14:48:21;33.30;1.00
37158;DHT22;23050;51.776;22.638;2022-08-18T14:50:49;33.20;1.00
37158;DHT22;23050;51.776;22.638;2022-08-18T14:53:17;32.70;1.00
37158;DHT22;23050;51.776;22.638;2022-08-18T14:55:45;32.90;1.00
37158;DHT22;23050;51.776;22.638;2022-08-18T14:58:11;33.20;1.00
37158;DHT22;23050;51.776;22.638;2022-08-18T15:00:38;33.70;1.00
37158;DHT22;23050;51.776;22.638;2022-08-18T15:03:04;34.20;1.00
37158;DHT22;23050;51.776;22.638;2022-08-18T15:05:32;34.40;1.00
37158;DHT22;23050;51.776;22.638;2022-08-18T15:07:59;34.10;1.00
37158;DHT22;23050;51.776;22.638;2022-08-18T15:10:27;34.00;1.00
37158;DHT22;23050;51.776;22.638;2022-08-18T15:12:52;34.00;1.00
37158;DHT22;23050;51.776;22.638;2022-08-18T15:15:18;33.60;1.00
37158;DHT22;23050;51.776;22.638;2022-08-18T15:17:44;33.90;1.00
37158;DHT22;23050;51.776;22.638;2022-08-18T15:20:10;34.00;1.00
37158;DHT22;23050;51.776;22.638;2022-08-18T15:22:39;33.60;1.00
37158;DHT22;23050;51.776;22.638;2022-08-18T15:25:23;33.50;1.00
37158;DHT22;23050;51.776;22.638;2022-08-18T15:28:11;33.60;1.00
37158;DHT22;23050;51.776;22.638;2022-08-18T15:30:37;33.40;1.00
37158;DHT22;23050;51.776;22.638;2022-08-18T15:33:04;32.90;1.00
37158;DHT22;23050;51.776;22.638;2022-08-18T15:35:31;33.10;1.00
37158;DHT22;23050;51.776;22.638;2022-08-18T15:37:57;33.20;1.00
37158;DHT22;23050;51.776;22.638;2022-08-18T15:40:25;33.30;1.00
37158;DHT22;23050;51.776;22.638;2022-08-18T15:42:54;33.10;1.00
37158;DHT22;23050;51.776;22.638;2022-08-18T15:45:28;33.10;1.00
37158;DHT22;23050;51.776;22.638;2022-08-18T15:47:54;33.10;1.00
37158;DHT22;23050;51.776;22.638;2022-08-18T15:50:21;33.10;1.00
37158;DHT22;23050;51.776;22.638;2022-08-18T15:52:56;33.00;1.00
37158;DHT22;23050;51.776;22.638;2022-08-18T15:55:24;32.90;1.40
37158;DHT22;23050;51.776;22.638;2022-08-18T15:57:52;32.70;1.70
37158;DHT22;23050;51.776;22.638;2022-08-18T16:00:18;32.30;2.40
37158;DHT22;23050;51.776;22.638;2022-08-18T16:03:05;32.10;4.30
37158;DHT22;23050;51.776;22.638;2022-08-18T16:05:37;32.10;3.80
37158;DHT22;23050;51.776;22.638;2022-08-18T16:08:07;32.10;5.40
37158;DHT22;23050;51.776;22.638;2022-08-18T16:10:35;32.00;4.10
37158;DHT22;23050;51.776;22.638;2022-08-18T16:13:03;31.90;6.20
37158;DHT22;23050;51.776;22.638;2022-08-18T16:15:33;31.80;6.90
37158;DHT22;23050;51.776;22.638;2022-08-18T16:17:59;31.70;6.80
37158;DHT22;23050;51.776;22.638;2022-08-18T16:20:25;31.50;6.80
37158;DHT22;23050;51.776;22.638;2022-08-18T16:22:52;31.40;7.70
37158;DHT22;23050;51.776;22.638;2022-08-18T16:25:18;31.20;10.00
37158;DHT22;23050;51.776;22.638;2022-08-18T16:27:44;31.10;9.30
37158;DHT22;23050;51.776;22.638;2022-08-18T16:30:15;30.80;11.20
37158;DHT22;23050;51.776;22.638;2022-08-18T16:32:40;30.60;12.60
37158;DHT22;23050;51.776;22.638;2022-08-18T16:35:07;30.40;14.90
37158;DHT22;23050;51.776;22.638;2022-08-18T16:37:33;30.20;20.10
37158;DHT22;23050;51.776;22.638;2022-08-18T16:39:59;30.10;24.30
37158;DHT22;23050;51.776;22.638;2022-08-18T16:42:25;29.90;32.50
37158;DHT22;23050;51.776;22.638;2022-08-18T16:44:50;29.80;38.40
37158;DHT22;23050;51.776;22.638;2022-08-18T16:47:16;29.70;42.90
37158;DHT22;23050;51.776;22.638;2022-08-18T16:49:46;29.60;44.00
37158;DHT22;23050;51.776;22.638;2022-08-18T16:52:13;29.40;47.40
37158;DHT22;23050;51.776;22.638;2022-08-18T16:54:40;29.30;49.80
37158;DHT22;23050;51.776;22.638;2022-08-18T16:57:06;29.10;54.10
37158;DHT22;23050;51.776;22.638;2022-08-18T16:59:32;28.90;58.80
37158;DHT22;23050;51.776;22.638;2022-08-18T17:02:16;28.90;64.10
37158;DHT22;23050;51.776;22.638;2022-08-18T17:04:42;28.70;73.30
37158;DHT22;23050;51.776;22.638;2022-08-18T17:07:07;28.60;76.50
37158;DHT22;23050;51.776;22.638;2022-08-18T17:09:34;28.40;78.00
37158;DHT22;23050;51.776;22.638;2022-08-18T17:12:00;28.30;82.50
37158;DHT22;23050;51.776;22.638;2022-08-18T17:14:28;28.20;86.60
37158;DHT22;23050;51.776;22.638;2022-08-18T17:16:55;28.00;89.50
37158;DHT22;23050;51.776;22.638;2022-08-18T17:19:24;27.90;91.40
37158;DHT22;23050;51.776;22.638;2022-08-18T17:21:51;27.80;93.50
37158;DHT22;23050;51.776;22.638;2022-08-18T17:24:17;27.70;94.40
37158;DHT22;23050;51.776;22.638;2022-08-18T17:27:01;27.50;94.80
37158;DHT22;23050;51.776;22.638;2022-08-18T17:34:46;27.20;99.00
37158;DHT22;23050;51.776;22.638;2022-08-18T17:37:17;27.10;99.90
37158;DHT22;23050;51.776;22.638;2022-08-18T17:40:16;26.90;99.90
37158;DHT22;23050;51.776;22.638;2022-08-18T17:42:40;26.80;99.90
37158;DHT22;23050;51.776;22.638;2022-08-18T17:45:08;26.60;99.90
37158;DHT22;23050;51.776;22.638;2022-08-18T17:50:32;26.20;99.90
37158;DHT22;23050;51.776;22.638;2022-08-18T17:53:16;26.00;99.90
37158;DHT22;23050;51.776;22.638;2022-08-18T17:58:41;25.60;99.90
37158;DHT22;23050;51.776;22.638;2022-08-18T18:01:10;25.50;99.90
37158;DHT22;23050;51.776;22.638;2022-08-18T18:03:36;25.40;99.90
37158;DHT22;23050;51.776;22.638;2022-08-18T18:06:10;25.30;99.90
37158;DHT22;23050;51.776;22.638;2022-08-18T18:08:55;25.10;99.90
37158;DHT22;23050;51.776;22.638;2022-08-18T18:11:32;25.00;99.90
37158;DHT22;23050;51.776;22.638;2022-08-18T18:13:59;24.90;99.90
37158;DHT22;23050;51.776;22.638;2022-08-18T18:16:32;24.90;99.90
37158;DHT22;23050;51.776;22.638;2022-08-18T18:19:05;24.70;99.90
37158;DHT22;23050;51.776;22.638;2022-08-18T18:21:33;24.60;99.90
37158;DHT22;23050;51.776;22.638;2022-08-18T18:26:39;24.40;99.90